createdAt,value
2022-08-26T00:02:11.236Z,97889.03
2022-08-26T00:04:38.544Z,97886.63
2022-08-26T00:07:06.301Z,97877.75
2022-08-26T00:09:33.938Z,97878.78
2022-08-26T00:12:07.777Z,97876.84
2022-08-26T00:14:36.735Z,97876.63
2022-08-26T00:17:04.650Z,97868.50
2022-08-26T00:19:32.649Z,97871.22
2022-08-26T00:21:59.907Z,97876.44
2022-08-26T00:24:27.225Z,97868.97
2022-08-26T00:26:54.709Z,97874.50
2022-08-26T00:29:22.403Z,97866.88
2022-08-26T00:31:50.315Z,97871.44
2022-08-26T00:34:19.313Z,97878.78
2022-08-26T00:36:49.293Z,97883.28
2022-08-26T00:39:20.943Z,97868.88
2022-08-26T00:41:48.989Z,97872.34
2022-08-26T00:44:17.445Z,97879.22
2022-08-26T00:47:20.238Z,97878.81
2022-08-26T00:49:51.481Z,97873.03
2022-08-26T00:52:23.079Z,97873.03
2022-08-26T00:55:00.681Z,97869.06
2022-08-26T00:57:28.835Z,97870.28
2022-08-26T01:00:01.413Z,97869.00
2022-08-26T01:02:29.701Z,97873.00
2022-08-26T01:05:01.461Z,97865.22
2022-08-26T01:07:34.750Z,97873.19
2022-08-26T01:10:08.571Z,97877.94
2022-08-26T01:12:44.967Z,97872.94
2022-08-26T01:15:20.838Z,97872.16
2022-08-26T01:17:49.926Z,97874.50
2022-08-26T01:20:38.119Z,97865.25
2022-08-26T01:23:09.872Z,97870.56
2022-08-26T01:25:46.677Z,97869.56
2022-08-26T01:28:36.863Z,97871.06
2022-08-26T01:31:09.838Z,97869.59
2022-08-26T01:33:55.116Z,97870.28
2022-08-26T01:36:23.893Z,97870.47
2022-08-26T01:38:51.901Z,97876.97
2022-08-26T01:41:27.221Z,97872.00
2022-08-26T01:43:58.008Z,97867.03
2022-08-26T01:46:30.164Z,97866.06
2022-08-26T01:49:03.180Z,97869.72
2022-08-26T01:51:37.625Z,97867.31
2022-08-26T01:54:11.794Z,97868.94
2022-08-26T01:56:39.892Z,97865.47
2022-08-26T01:59:13.817Z,97874.25
2022-08-26T02:01:41.270Z,97870.78
2022-08-26T02:04:21.525Z,97868.44
2022-08-26T02:06:49.349Z,97862.25
2022-08-26T02:09:19.898Z,97865.72
2022-08-26T02:11:48.716Z,97865.38
2022-08-26T02:14:26.898Z,97872.06
2022-08-26T02:16:56.268Z,97869.59
2022-08-26T02:19:30.784Z,97867.81
2022-08-26T02:22:04.237Z,97867.69
2022-08-26T02:24:54.853Z,97865.91
2022-08-26T02:27:28.148Z,97858.91
2022-08-26T02:30:11.931Z,97863.72
2022-08-26T02:32:40.184Z,97858.91
2022-08-26T02:35:12.883Z,97863.38
2022-08-26T02:37:41.885Z,97860.91
2022-08-26T02:40:14.375Z,97856.13
2022-08-26T02:42:42.339Z,97857.25
2022-08-26T02:45:10.999Z,97857.25
2022-08-26T02:47:39.359Z,97865.38
2022-08-26T02:50:07.602Z,97857.13
2022-08-26T02:52:35.369Z,97857.94
2022-08-26T02:55:03.833Z,97858.75
2022-08-26T02:57:31.393Z,97860.59
2022-08-26T03:00:01.359Z,97862.78
2022-08-26T03:02:29.391Z,97860.94
2022-08-26T03:04:58.033Z,97852.16
2022-08-26T03:07:29.877Z,97853.31
2022-08-26T03:09:58.858Z,97858.81
2022-08-26T03:12:26.489Z,97860.00
2022-08-26T03:14:53.964Z,97863.28
2022-08-26T03:17:21.491Z,97856.00
2022-08-26T03:19:51.832Z,97858.34
2022-08-26T03:22:22.063Z,97858.19
2022-08-26T03:24:50.377Z,97853.38
2022-08-26T03:27:18.301Z,97861.38
2022-08-26T03:30:04.334Z,97858.88
2022-08-26T03:32:32.072Z,97848.78
2022-08-26T03:34:59.760Z,97862.38
2022-08-26T03:37:27.273Z,97853.09
2022-08-26T03:39:55.157Z,97862.22
2022-08-26T03:42:22.504Z,97854.44
2022-08-26T03:44:51.587Z,97853.09
2022-08-26T03:47:19.474Z,97853.06
2022-08-26T03:49:46.828Z,97849.88
2022-08-26T03:52:14.508Z,97840.13
2022-08-26T03:54:42.008Z,97841.28
2022-08-26T03:57:10.848Z,97843.94
2022-08-26T03:59:38.081Z,97842.81
2022-08-26T04:02:11.608Z,97841.13
2022-08-26T04:04:40.334Z,97849.78
2022-08-26T04:07:07.678Z,97855.22
2022-08-26T04:09:35.706Z,97848.59
2022-08-26T04:12:04.101Z,97846.09
2022-08-26T04:14:32.585Z,97847.91
2022-08-26T04:17:00.130Z,97843.75
2022-08-26T04:19:27.371Z,97848.06
2022-08-26T04:21:54.743Z,97848.59
2022-08-26T04:24:25.985Z,97841.13
2022-08-26T04:26:56.647Z,97841.72
2022-08-26T04:29:26.876Z,97842.75
2022-08-26T04:31:56.167Z,97837.59
2022-08-26T04:34:28.455Z,97841.22
2022-08-26T04:36:57.932Z,97847.50
2022-08-26T04:39:25.673Z,97842.03
2022-08-26T04:41:55.718Z,97844.69
2022-08-26T04:44:29.301Z,97844.00
2022-08-26T04:46:58.614Z,97844.69
2022-08-26T04:49:27.521Z,97841.00
2022-08-26T04:51:55.220Z,97837.94
2022-08-26T04:54:23.284Z,97835.06
2022-08-26T04:56:52.873Z,97837.53
2022-08-26T04:59:20.531Z,97834.41
2022-08-26T05:01:52.598Z,97837.72
2022-08-26T05:04:21.306Z,97839.50
2022-08-26T05:06:50.655Z,97837.81
2022-08-26T05:09:20.283Z,97837.09
2022-08-26T05:11:52.192Z,97841.34
2022-08-26T05:14:23.326Z,97840.44
2022-08-26T05:16:51.304Z,97846.69
2022-08-26T05:19:19.472Z,97845.19
2022-08-26T05:21:48.775Z,97841.81
2022-08-26T05:24:18.023Z,97838.84
2022-08-26T05:26:47.314Z,97844.41
2022-08-26T05:29:17.034Z,97844.06
2022-08-26T05:31:44.474Z,97851.50
2022-08-26T05:34:12.729Z,97844.16
2022-08-26T05:36:40.315Z,97843.25
2022-08-26T05:39:10.352Z,97846.03
2022-08-26T05:41:41.579Z,97841.66
2022-08-26T05:44:14.010Z,97841.91
2022-08-26T05:46:42.590Z,97844.16
2022-08-26T05:49:14.610Z,97835.09
2022-08-26T05:51:47.644Z,97846.09
2022-08-26T05:54:21.263Z,97844.81
2022-08-26T05:56:51.828Z,97841.69
2022-08-26T05:59:24.323Z,97841.41
2022-08-26T06:01:54.858Z,97844.78
2022-08-26T06:04:27.539Z,97833.22
2022-08-26T06:06:58.100Z,97835.34
2022-08-26T06:09:30.835Z,97832.56
2022-08-26T06:11:58.961Z,97831.25
2022-08-26T06:14:26.411Z,97835.09
2022-08-26T06:16:53.704Z,97829.44
2022-08-26T06:19:22.070Z,97835.94
2022-08-26T06:21:54.684Z,97846.16
2022-08-26T06:24:41.384Z,97834.81
2022-08-26T06:27:13.661Z,97837.03
2022-08-26T06:29:41.935Z,97845.03
2022-08-26T06:32:09.384Z,97838.09
2022-08-26T06:34:36.928Z,97843.97
2022-08-26T06:37:06.437Z,97840.88
2022-08-26T06:39:34.314Z,97844.72
2022-08-26T06:42:03.262Z,97846.75
2022-08-26T06:44:33.729Z,97843.59
2022-08-26T06:47:01.195Z,97843.50
2022-08-26T06:49:28.777Z,97849.50
2022-08-26T06:52:00.143Z,97843.13
2022-08-26T06:54:31.816Z,97847.13
2022-08-26T06:56:59.787Z,97856.25
2022-08-26T06:59:27.394Z,97859.53
2022-08-26T07:01:55.236Z,97858.16
2022-08-26T07:04:24.708Z,97860.19
2022-08-26T07:06:53.731Z,97869.22
2022-08-26T07:09:25.533Z,97868.72
2022-08-26T07:11:56.295Z,97877.16
2022-08-26T07:14:26.212Z,97875.00
2022-08-26T07:16:54.271Z,97873.16
2022-08-26T07:19:30.464Z,97861.03
2022-08-26T07:22:04.872Z,97865.34
2022-08-26T07:24:40.368Z,97862.81
2022-08-26T07:27:15.131Z,97870.56
2022-08-26T07:29:43.776Z,97869.53
2022-08-26T07:32:15.201Z,97875.56
2022-08-26T07:34:43.732Z,97868.44
2022-08-26T07:37:11.817Z,97868.31
2022-08-26T07:39:41.746Z,97861.63
2022-08-26T07:42:14.243Z,97866.97
2022-08-26T07:44:43.883Z,97866.22
2022-08-26T07:47:25.494Z,97869.25
2022-08-26T07:49:57.661Z,97871.53
2022-08-26T07:52:28.908Z,97877.19
2022-08-26T07:55:00.368Z,97880.34
2022-08-26T07:57:29.421Z,97882.44
2022-08-26T07:59:57.726Z,97889.53
2022-08-26T08:02:28.532Z,97890.34
2022-08-26T08:04:57.910Z,97888.13
2022-08-26T08:07:44.722Z,97895.16
2022-08-26T08:10:18.851Z,97898.59
2022-08-26T08:12:50.485Z,97898.59
2022-08-26T08:15:24.999Z,97891.75
2022-08-26T08:17:54.049Z,97901.66
2022-08-26T08:20:23.975Z,97896.69
2022-08-26T08:22:53.515Z,97905.31
2022-08-26T08:25:22.380Z,97896.94
2022-08-26T08:27:50.186Z,97899.00
2022-08-26T08:30:23.072Z,97894.53
2022-08-26T08:32:52.472Z,97895.09
2022-08-26T08:35:22.667Z,97895.13
2022-08-26T08:37:54.463Z,97898.03
2022-08-26T08:40:26.364Z,97889.00
2022-08-26T08:43:07.267Z,97895.63
2022-08-26T08:45:52.735Z,97882.38
2022-08-26T08:48:27.350Z,97879.66
2022-08-26T08:51:41.499Z,97880.41
2022-08-26T08:54:10.502Z,97871.38
2022-08-26T08:56:53.373Z,97883.78
2022-08-26T08:59:34.420Z,97874.44
2022-08-26T09:02:25.810Z,97874.78
2022-08-26T09:05:40.232Z,97865.97
2022-08-26T09:08:32.763Z,97872.84
2022-08-26T09:11:03.864Z,97859.09
2022-08-26T09:13:32.004Z,97864.34
2022-08-26T09:16:24.491Z,97866.00
2022-08-26T09:19:30.325Z,97853.44
2022-08-26T09:22:02.236Z,97851.28
2022-08-26T09:24:42.038Z,97853.09
2022-08-26T09:27:41.397Z,97851.59
2022-08-26T09:30:25.405Z,97849.63
2022-08-26T09:33:10.928Z,97844.09
2022-08-26T09:35:47.643Z,97843.97
2022-08-26T09:38:34.619Z,97840.47
2022-08-26T09:41:08.858Z,97840.91
2022-08-26T09:43:36.747Z,97832.50
2022-08-26T09:46:28.176Z,97838.13
2022-08-26T09:48:56.234Z,97838.91
2022-08-26T09:51:42.034Z,97831.06
2022-08-26T09:54:30.171Z,97835.84
2022-08-26T09:57:26.070Z,97827.84
2022-08-26T09:59:53.952Z,97827.78
2022-08-26T10:02:33.791Z,97825.75
2022-08-26T10:05:09.334Z,97821.34
2022-08-26T10:07:51.379Z,97829.31
2022-08-26T10:10:22.209Z,97825.34
2022-08-26T10:13:23.574Z,97824.34
2022-08-26T10:16:21.202Z,97820.69
2022-08-26T10:19:13.457Z,97819.97
2022-08-26T10:22:00.241Z,97809.59
2022-08-26T10:24:44.008Z,97810.09
2022-08-26T10:27:44.559Z,97809.16
2022-08-26T10:30:23.868Z,97810.59
2022-08-26T10:33:00.859Z,97797.28
2022-08-26T10:35:30.971Z,97797.31
2022-08-26T10:38:08.218Z,97788.72
2022-08-26T10:41:20.694Z,97785.84
2022-08-26T10:43:59.343Z,97790.00
2022-08-26T10:46:55.680Z,97786.00
2022-08-26T10:49:23.052Z,97782.88
2022-08-26T10:52:16.412Z,97780.97
2022-08-26T10:54:59.788Z,97771.63
2022-08-26T10:57:55.661Z,97775.16
2022-08-26T11:00:51.580Z,97770.72
2022-08-26T11:03:40.345Z,97768.25
2022-08-26T11:06:23.483Z,97759.28
2022-08-26T11:08:57.912Z,97755.88
2022-08-26T11:11:42.123Z,97756.28
2022-08-26T11:14:16.444Z,97749.53
2022-08-26T11:16:57.630Z,97752.28
2022-08-26T11:19:59.542Z,97754.09
2022-08-26T11:22:47.598Z,97742.56
2022-08-26T11:25:18.448Z,97716.88
2022-08-26T11:27:49.946Z,97739.38
2022-08-26T11:30:18.564Z,97718.88
2022-08-26T11:32:59.254Z,97725.56
2022-08-26T11:35:27.198Z,97721.13
2022-08-26T11:37:59.135Z,97713.94
2022-08-26T11:40:38.629Z,97716.53
2022-08-26T11:43:23.212Z,97706.78
2022-08-26T11:46:07.859Z,97689.06
2022-08-26T11:48:41.493Z,97706.53
2022-08-26T11:51:10.352Z,97692.31
2022-08-26T11:53:42.718Z,97697.63
2022-08-26T11:56:31.665Z,97691.47
2022-08-26T11:59:04.444Z,97697.28
2022-08-26T12:01:38.036Z,97687.59
2022-08-26T12:04:12.854Z,97676.06
2022-08-26T12:06:51.362Z,97676.34
2022-08-26T12:09:30.329Z,97680.50
2022-08-26T12:12:23.600Z,97669.53
2022-08-26T12:15:10.707Z,97674.53
2022-08-26T12:17:40.776Z,97668.28
2022-08-26T12:20:48.475Z,97657.00
2022-08-26T12:23:36.475Z,97658.19
2022-08-26T12:26:20.014Z,97643.03
2022-08-26T12:29:26.523Z,97653.19
2022-08-26T12:32:14.712Z,97640.38
2022-08-26T12:34:45.512Z,97647.94
2022-08-26T12:37:15.584Z,97641.88
2022-08-26T12:39:45.034Z,97639.47
2022-08-26T12:42:15.994Z,97632.53
2022-08-26T12:44:58.633Z,97629.09
2022-08-26T12:47:44.304Z,97638.00
2022-08-26T12:50:33.473Z,97632.19
2022-08-26T12:53:17.822Z,97635.13
2022-08-26T12:55:58.702Z,97622.41
2022-08-26T12:58:38.838Z,97621.41
2022-08-26T13:01:09.028Z,97622.56
2022-08-26T13:03:38.778Z,97617.63
2022-08-26T13:06:22.247Z,97608.72
2022-08-26T13:08:52.804Z,97602.81
2022-08-26T13:11:39.925Z,97609.38
2022-08-26T13:14:24.048Z,97607.94
2022-08-26T13:16:53.630Z,97605.88
2022-08-26T13:19:29.214Z,97604.75
2022-08-26T13:22:00.362Z,97611.06
2022-08-26T13:24:42.094Z,97600.31
2022-08-26T13:27:14.122Z,97596.75
2022-08-26T13:29:42.307Z,97610.03
2022-08-26T13:32:10.017Z,97609.16
2022-08-26T13:34:38.850Z,97609.72
2022-08-26T13:37:07.271Z,97611.69
2022-08-26T13:39:34.708Z,97613.72
2022-08-26T13:42:02.045Z,97611.34
2022-08-26T13:44:29.693Z,97608.56
2022-08-26T13:46:57.038Z,97605.50
2022-08-26T13:49:24.291Z,97606.84
2022-08-26T13:51:51.917Z,97605.88
2022-08-26T13:54:19.343Z,97606.53
2022-08-26T13:56:46.677Z,97604.31
2022-08-26T13:59:15.102Z,97604.63
2022-08-26T14:01:42.482Z,97605.75
2022-08-26T14:04:09.870Z,97604.41
2022-08-26T14:06:37.534Z,97606.06
2022-08-26T14:09:05.396Z,97600.88
2022-08-26T14:11:41.194Z,97597.19
2022-08-26T14:14:18.586Z,97596.03
2022-08-26T14:16:59.803Z,97597.09
2022-08-26T14:19:30.127Z,97593.53
2022-08-26T14:21:57.862Z,97598.25
2022-08-26T14:24:25.172Z,97590.94
2022-08-26T14:26:52.728Z,97585.22
2022-08-26T14:29:20.330Z,97583.75
2022-08-26T14:31:48.664Z,97572.63
2022-08-26T14:34:16.471Z,97590.97
2022-08-26T14:36:43.816Z,97576.38
2022-08-26T14:39:14.435Z,97573.34
2022-08-26T14:41:54.549Z,97572.59
2022-08-26T14:44:31.290Z,97587.63
2022-08-26T14:47:02.922Z,97581.31
2022-08-26T14:49:31.859Z,97577.19
2022-08-26T14:51:59.736Z,97576.91
2022-08-26T14:54:28.971Z,97573.88
2022-08-26T14:57:01.886Z,97571.38
2022-08-26T14:59:36.378Z,97578.88
2022-08-26T15:02:05.790Z,97582.47
2022-08-26T15:04:34.152Z,97580.09
2022-08-26T15:07:03.411Z,97581.03
2022-08-26T15:09:35.275Z,97585.06
2022-08-26T15:12:04.944Z,97589.38
2022-08-26T15:14:33.149Z,97587.09
2022-08-26T15:17:01.070Z,97590.47
2022-08-26T15:19:30.367Z,97579.75
2022-08-26T15:21:57.666Z,97584.19
2022-08-26T15:24:26.782Z,97590.25
2022-08-26T15:26:54.822Z,97588.34
2022-08-26T15:29:24.260Z,97591.69
2022-08-26T15:31:52.364Z,97589.69
2022-08-26T15:34:24.673Z,97588.16
2022-08-26T15:36:51.971Z,97599.41
2022-08-26T15:39:20.067Z,97594.28
2022-08-26T15:41:47.731Z,97590.53
2022-08-26T15:44:17.111Z,97591.91
2022-08-26T15:46:44.841Z,97588.44
2022-08-26T15:49:16.978Z,97582.25
2022-08-26T15:51:50.474Z,97585.25
2022-08-26T15:54:23.438Z,97588.84
2022-08-26T15:56:52.500Z,97582.66
2022-08-26T15:59:21.886Z,97583.97
2022-08-26T16:01:50.918Z,97583.72
2022-08-26T16:04:18.796Z,97591.88
2022-08-26T16:06:50.432Z,97583.69
2022-08-26T16:09:26.992Z,97586.41
2022-08-26T16:11:58.770Z,97582.56
2022-08-26T16:14:26.692Z,97578.78
2022-08-26T16:16:54.357Z,97579.59
2022-08-26T16:19:22.435Z,97576.75
2022-08-26T16:21:51.561Z,97570.50
2022-08-26T16:24:28.366Z,97568.53
2022-08-26T16:26:57.888Z,97564.91
2022-08-26T16:29:25.419Z,97555.66
2022-08-26T16:31:54.822Z,97561.50
2022-08-26T16:34:22.872Z,97559.25
2022-08-26T16:36:52.412Z,97554.00
2022-08-26T16:39:20.268Z,97556.31
2022-08-26T16:41:47.787Z,97538.91
2022-08-26T16:44:16.638Z,97550.06
2022-08-26T16:46:45.925Z,97548.59
2022-08-26T16:49:14.315Z,97542.81
2022-08-26T16:51:41.984Z,97547.50
2022-08-26T16:54:09.760Z,97535.47
2022-08-26T16:56:38.294Z,97535.03
2022-08-26T16:59:11.639Z,97538.38
2022-08-26T17:01:39.392Z,97535.50
2022-08-26T17:04:06.989Z,97525.53
2022-08-26T17:06:34.454Z,97530.66
2022-08-26T17:09:02.461Z,97524.53
2022-08-26T17:11:30.250Z,97519.88
2022-08-26T17:13:57.783Z,97524.16
2022-08-26T17:16:27.081Z,97522.81
2022-08-26T17:18:57.788Z,97523.34
2022-08-26T17:21:26.848Z,97508.56
2022-08-26T17:23:55.306Z,97527.47
2022-08-26T17:26:22.741Z,97527.88
2022-08-26T17:28:51.341Z,97532.22
2022-08-26T17:31:20.550Z,97526.41
2022-08-26T17:33:53.542Z,97532.63
2022-08-26T17:36:28.015Z,97520.38
2022-08-26T17:38:57.892Z,97532.06
2022-08-26T17:41:27.255Z,97535.97
2022-08-26T17:43:55.198Z,97533.16
2022-08-26T17:46:23.351Z,97531.41
2022-08-26T17:48:51.432Z,97534.56
2022-08-26T17:51:19.936Z,97530.94
2022-08-26T17:53:48.798Z,97531.72
2022-08-26T17:56:20.155Z,97536.72
2022-08-26T17:58:51.136Z,97536.09
2022-08-26T18:01:22.110Z,97529.19
2022-08-26T18:03:50.756Z,97539.25
2022-08-26T18:06:19.215Z,97530.38
2022-08-26T18:08:47.461Z,97534.28
2022-08-26T18:11:19.635Z,97535.72
2022-08-26T18:13:47.921Z,97541.06
2022-08-26T18:16:18.200Z,97548.22
2022-08-26T18:18:48.151Z,97548.75
2022-08-26T18:21:21.240Z,97550.59
2022-08-26T18:23:51.053Z,97550.00
2022-08-26T18:26:31.662Z,97548.91
2022-08-26T18:28:59.951Z,97548.69
2022-08-26T18:31:28.666Z,97547.41
2022-08-26T18:33:57.293Z,97550.47
2022-08-26T18:36:32.598Z,97556.19
2022-08-26T18:39:00.903Z,97553.44
2022-08-26T18:41:32.150Z,97554.53
2022-08-26T18:44:00.136Z,97561.16
2022-08-26T18:46:28.527Z,97556.22
2022-08-26T18:48:57.584Z,97556.84
2022-08-26T18:51:33.060Z,97559.75
2022-08-26T18:54:04.590Z,97549.63
2022-08-26T18:56:33.756Z,97550.44
2022-08-26T18:59:02.131Z,97552.94
2022-08-26T19:01:32.070Z,97549.66
2022-08-26T19:04:03.124Z,97554.25
2022-08-26T19:06:35.597Z,97551.31
2022-08-26T19:09:07.034Z,97548.88
2022-08-26T19:11:42.833Z,97552.81
2022-08-26T19:14:16.284Z,97548.53
2022-08-26T19:16:49.665Z,97551.22
2022-08-26T19:19:17.455Z,97551.81
2022-08-26T19:21:45.820Z,97557.41
2022-08-26T19:24:17.647Z,97556.22
2022-08-26T19:26:49.127Z,97550.91
2022-08-26T19:29:28.384Z,97564.31
2022-08-26T19:31:56.683Z,97566.06
2022-08-26T19:34:24.640Z,97566.06
2022-08-26T19:36:54.264Z,97577.63
2022-08-26T19:39:21.972Z,97570.22
2022-08-26T19:41:49.577Z,97579.31
2022-08-26T19:44:38.547Z,97581.56
2022-08-26T19:47:10.573Z,97578.50
2022-08-26T19:49:38.857Z,97580.53
2022-08-26T19:52:08.989Z,97590.06
2022-08-26T19:54:37.782Z,97588.84
2022-08-26T19:57:05.981Z,97595.19
2022-08-26T19:59:33.279Z,97595.63
2022-08-26T20:02:02.253Z,97600.97
2022-08-26T20:04:33.645Z,97602.22
2022-08-26T20:07:02.418Z,97600.81
2022-08-26T20:09:32.772Z,97599.56
2022-08-26T20:12:00.695Z,97599.19
2022-08-26T20:14:28.687Z,97595.91
2022-08-26T20:16:56.667Z,97596.53
2022-08-26T20:19:42.818Z,97590.34
2022-08-26T20:22:11.227Z,97597.78
2022-08-26T20:24:38.684Z,97600.91
2022-08-26T20:27:07.950Z,97600.91
2022-08-26T20:29:37.300Z,97600.31
2022-08-26T20:32:07.236Z,97606.88
2022-08-26T20:34:36.733Z,97604.84
2022-08-26T20:37:05.317Z,97601.16
2022-08-26T20:39:32.733Z,97608.78
2022-08-26T20:42:00.081Z,97608.78
2022-08-26T20:44:27.790Z,97603.44
2022-08-26T20:47:13.473Z,97608.34
2022-08-26T20:49:41.239Z,97607.13
2022-08-26T20:52:10.967Z,97607.16
2022-08-26T20:54:38.481Z,97609.59
2022-08-26T20:57:06.513Z,97603.44
2022-08-26T20:59:34.200Z,97599.16
2022-08-26T21:02:01.804Z,97603.88
2022-08-26T21:04:29.364Z,97597.09
2022-08-26T21:06:56.903Z,97596.50
2022-08-26T21:09:27.442Z,97590.94
2022-08-26T21:11:56.717Z,97597.72
2022-08-26T21:14:25.863Z,97594.84
2022-08-26T21:16:54.453Z,97589.47
2022-08-26T21:19:22.326Z,97596.22
2022-08-26T21:21:50.091Z,97601.34
2022-08-26T21:24:18.247Z,97596.81
2022-08-26T21:26:46.405Z,97602.94
2022-08-26T21:29:14.640Z,97603.56
2022-08-26T21:31:46.383Z,97606.22
2022-08-26T21:34:19.554Z,97607.47
2022-08-26T21:36:48.426Z,97601.28
2022-08-26T21:39:17.181Z,97602.72
2022-08-26T21:41:46.271Z,97594.94
2022-08-26T21:44:16.804Z,97597.81
2022-08-26T21:46:46.820Z,97605.34
2022-08-26T21:49:16.269Z,97596.09
2022-08-26T21:51:48.660Z,97595.84
2022-08-26T21:54:18.192Z,97602.97
2022-08-26T21:56:47.674Z,97598.03
2022-08-26T21:59:18.750Z,97601.09
2022-08-26T22:01:47.719Z,97595.75
2022-08-26T22:04:16.291Z,97601.28
2022-08-26T22:06:51.768Z,97596.53
2022-08-26T22:09:27.892Z,97596.66
2022-08-26T22:11:56.968Z,97590.44
2022-08-26T22:14:30.392Z,97581.63
2022-08-26T22:17:00.138Z,97576.25
2022-08-26T22:19:28.217Z,97572.38
2022-08-26T22:21:57.872Z,97569.47
2022-08-26T22:24:27.352Z,97566.06
2022-08-26T22:26:56.212Z,97560.06
2022-08-26T22:29:25.266Z,97561.50
2022-08-26T22:31:53.201Z,97567.47
2022-08-26T22:34:23.042Z,97557.69
2022-08-26T22:36:50.759Z,97561.78
2022-08-26T22:39:24.786Z,97548.69
2022-08-26T22:41:54.418Z,97549.13
2022-08-26T22:44:23.419Z,97550.31
2022-08-26T22:46:54.422Z,97562.44
2022-08-26T22:49:22.557Z,97554.44
2022-08-26T22:51:51.111Z,97563.09
2022-08-26T22:54:18.405Z,97558.78
2022-08-26T22:56:46.068Z,97554.63
2022-08-26T22:59:13.622Z,97550.31
2022-08-26T23:01:43.453Z,97543.34
2022-08-26T23:04:12.053Z,97546.84
2022-08-26T23:06:43.348Z,97551.75
2022-08-26T23:09:18.602Z,97551.13
2022-08-26T23:11:48.630Z,97560.13
2022-08-26T23:14:19.170Z,97555.78
2022-08-26T23:16:47.742Z,97553.31
2022-08-26T23:19:18.429Z,97556.34
2022-08-26T23:21:47.526Z,97550.53
2022-08-26T23:24:15.832Z,97548.00
2022-08-26T23:26:44.932Z,97550.00
2022-08-26T23:29:15.726Z,97545.88
2022-08-26T23:31:43.322Z,97551.41
2022-08-26T23:34:30.281Z,97547.91
2022-08-26T23:36:59.314Z,97549.09
2022-08-26T23:39:28.976Z,97543.16
2022-08-26T23:41:57.034Z,97542.75
2022-08-26T23:44:26.717Z,97541.28
2022-08-26T23:46:54.938Z,97538.63
2022-08-26T23:49:22.626Z,97538.31
2022-08-26T23:52:08.932Z,97539.69
2022-08-26T23:54:37.406Z,97542.19
2022-08-26T23:57:06.636Z,97543.53
2022-08-26T23:59:34.468Z,97547.13
